Terminal Aerodrome Forecast
Issued by NWS

Home | Current Version | Previous Version | Text Only | Print | Product List | Glossary Off
Versions: 1 2 3 4 5 6 7 8 9 10 11 12 13 14 15 16 17 18 19

000
FTUS43 KUNR 250520
TAFGCC
TAF
KGCC 250520Z 2506/2606 29018G26KT P6SM VCSH BKN015 OVC040
     FM250900 32015G25KT P6SM SCT040 BKN100
     FM251400 34014KT P6SM SCT100=

USA.gov is the U.S. government's official web portal to all federal, state and local government web resources and services.